sim
Sign-in with your pilot id or email,
or register
Callsign
Passwort

Schedule Details

Flight Number: DLH2663
Departure: Tenerife South Airport (GCTS) at 15:20
Arrival: Munich Airport (EDDM) at 20:00
Route: Lufthansa Passenger Schedule. Enter filed route here before submitting Pirep.

Weather Information
Getting current METAR information for GCTS 281030Z 16006KT 130V200 9999 SCT030 26/17 Q1017 BECMG 09015KT
Getting current METAR information for EDDM 281050Z 26004KT 210V310 9999 FEW007 09/07 Q1011 NOSIG

Schedule Frequency

Route Map